Terminal Aerodrome Forecast
Issued by NWS

Home | Current Version | Previous Version | Text Only | Print | Product List | Glossary On
Versions: 1 2 3 4 5 6 7 8 9 10 11 12 13 14 15 16 17
000
FTUS41 KCLE 182300
TAFFDY
TAF
KFDY 182328Z 1900/1924 06011KT P6SM BKN200
     FM191600 11014G22KT P6SM VCSH BKN060 OVC100
     FM191800 12015G25KT 5SM -SHRA BKN025 OVC050
     FM192200 12015G25KT 3SM -SHRA BR VCTS BKN009 OVC022CB=

USA.gov is the U.S. government's official web portal to all federal, state and local government web resources and services.